Time;durP1;ratioP1;P1;durP2;ratioP2;P2;SDS_P1;SDS_P2;PMS_P1;PMS_P2;Temp;Humidity;BMP_temperature;BMP_pressure;BME280_temperature;BME280_humidity;BME280_pressure;Samples;Min_cycle;Max_cycle;Signal;HPM_P1;HPM_P2
2022/10/22 00:00:58;;;;;;;9.20;5.60;;;;;;;12.49;100.00;96066.31;4970756;28;20064;-75
2022/10/22 00:03:24;;;;;;;7.30;4.70;;;;;;;12.45;100.00;96065.84;4969006;28;20456;-76
2022/10/22 00:05:49;;;;;;;10.43;5.67;;;;;;;12.47;100.00;96068.28;4970953;28;20463;-75
2022/10/22 00:08:15;;;;;;;9.97;4.93;;;;;;;12.43;100.00;96075.72;4946705;28;20033;-76
2022/10/22 00:10:41;;;;;;;9.45;5.40;;;;;;;12.44;100.00;96073.91;4902495;28;20068;-76
2022/10/22 00:13:07;;;;;;;9.23;5.10;;;;;;;12.45;100.00;96076.38;4900870;28;20048;-75
2022/10/22 00:15:33;;;;;;;10.37;5.63;;;;;;;12.44;100.00;96085.31;4900354;28;20040;-75
2022/10/22 00:17:58;;;;;;;9.50;5.30;;;;;;;12.39;100.00;96082.34;4899172;28;20075;-75
2022/10/22 00:20:24;;;;;;;9.23;5.07;;;;;;;12.40;100.00;96085.81;4904280;28;20060;-75
2022/10/22 00:22:50;;;;;;;9.43;5.07;;;;;;;12.39;100.00;96085.00;4895317;28;20040;-76
2022/10/22 00:25:15;;;;;;;9.87;5.60;;;;;;;12.38;100.00;96087.81;4904194;28;20516;-75
2022/10/22 00:27:41;;;;;;;11.17;6.53;;;;;;;12.36;100.00;96087.97;4968149;28;20033;-75
2022/10/22 00:30:07;;;;;;;12.73;6.60;;;;;;;12.30;100.00;96080.75;5007999;28;20410;-75
2022/10/22 00:32:33;;;;;;;8.00;5.07;;;;;;;12.31;100.00;96074.50;5016071;28;20041;-75
2022/10/22 00:34:59;;;;;;;9.83;5.33;;;;;;;12.26;100.00;96076.81;5007536;28;20469;-76
2022/10/22 00:37:25;;;;;;;8.73;6.27;;;;;;;12.25;100.00;96069.91;5005544;28;20028;-76
2022/10/22 00:39:50;;;;;;;6.80;4.72;;;;;;;12.21;100.00;96068.63;5034053;28;20033;-75
2022/10/22 00:42:22;;;;;;;8.93;5.43;;;;;;;12.21;100.00;96080.00;5036617;28;20033;-75
2022/10/22 00:45:16;;;;;;;7.80;4.90;;;;;;;12.21;100.00;96081.81;5051536;28;20087;-75
2022/10/22 00:47:49;;;;;;;13.98;5.82;;;;;;;12.14;100.00;96078.19;5052388;28;20107;-75
2022/10/22 00:50:20;;;;;;;8.48;4.60;;;;;;;12.15;100.00;96078.03;5038574;28;20037;-76
2022/10/22 00:52:46;;;;;;;8.90;5.03;;;;;;;12.15;100.00;96071.94;5037729;28;20039;-76
2022/10/22 00:55:13;;;;;;;8.87;5.00;;;;;;;12.14;100.00;96068.50;5036792;28;20025;-76
2022/10/22 00:57:40;;;;;;;7.13;5.03;;;;;;;12.10;100.00;96067.19;5034410;28;22005;-76
2022/10/22 01:00:06;;;;;;;8.20;5.37;;;;;;;12.11;100.00;96068.84;5051015;28;20095;-76
2022/10/22 01:02:32;;;;;;;10.47;5.30;;;;;;;12.13;100.00;96066.00;5036100;28;20083;-76
2022/10/22 01:04:58;;;;;;;9.07;6.27;;;;;;;12.09;100.00;96062.09;5043604;28;20056;-76
2022/10/22 01:07:24;;;;;;;14.73;9.50;;;;;;;12.12;100.00;96057.28;5038329;28;20039;-76
2022/10/22 01:09:59;;;;;;;10.40;7.20;;;;;;;12.11;100.00;96053.03;5027415;28;20129;-76
2022/10/22 01:12:45;;;;;;;11.03;7.27;;;;;;;12.11;100.00;96049.56;5015293;28;20037;-76
2022/10/22 01:15:28;;;;;;;8.73;4.83;;;;;;;12.03;100.00;96039.88;5014112;28;20048;-76
2022/10/22 01:18:06;;;;;;;8.55;4.80;;;;;;;12.02;100.00;96039.06;5014231;28;20393;-76
2022/10/22 01:20:43;;;;;;;8.30;4.63;;;;;;;12.09;100.00;96033.09;5014503;28;22016;-76
2022/10/22 01:23:29;;;;;;;10.20;5.73;;;;;;;12.02;100.00;96036.41;5012000;28;20032;-76
2022/10/22 01:26:16;;;;;;;7.57;4.40;;;;;;;11.97;100.00;96032.66;5018032;28;20863;-76
2022/10/22 01:28:52;;;;;;;8.83;4.20;;;;;;;11.95;100.00;96038.09;5012422;28;20056;-76
2022/10/22 01:31:21;;;;;;;8.47;3.93;;;;;;;11.94;100.00;96039.09;5009954;28;22200;-76
2022/10/22 01:33:50;;;;;;;6.97;3.93;;;;;;;11.86;100.00;96049.66;5009583;28;20770;-76
2022/10/22 01:36:17;;;;;;;7.07;2.90;;;;;;;11.87;100.00;96039.94;5010579;28;20124;-77
2022/10/22 01:38:45;;;;;;;6.63;2.87;;;;;;;11.86;100.00;96047.03;5019545;28;20498;-76
2022/10/22 01:41:11;;;;;;;6.87;2.90;;;;;;;11.82;100.00;96050.16;5034597;28;20041;-76
2022/10/22 01:43:37;;;;;;;4.97;2.93;;;;;;;11.82;100.00;96066.78;5033574;28;20036;-76
2022/10/22 01:46:04;;;;;;;6.07;2.90;;;;;;;11.77;100.00;96064.69;5034914;28;20033;-76
2022/10/22 01:48:46;;;;;;;4.00;2.30;;;;;;;11.77;100.00;96063.88;5018331;28;20041;-76
2022/10/22 01:51:30;;;;;;;6.47;2.20;;;;;;;11.74;100.00;96072.09;5044952;28;20051;-76
2022/10/22 01:53:56;;;;;;;4.40;2.30;;;;;;;11.70;100.00;96076.03;5045102;28;20033;-76
2022/10/22 01:56:41;;;;;;;5.03;2.07;;;;;;;11.67;100.00;96073.75;5051173;28;20052;-76
2022/10/22 01:59:19;;;;;;;4.73;1.90;;;;;;;11.65;100.00;96068.66;5036786;28;20037;-76
2022/10/22 02:02:07;;;;;;;2.00;1.10;;;;;;;11.59;100.00;96076.41;5037433;28;20090;-76
2022/10/22 02:04:39;;;;;;;5.00;1.50;;;;;;;11.61;100.00;96071.81;5036826;28;20095;-76
2022/10/22 02:07:07;;;;;;;5.87;1.37;;;;;;;11.56;100.00;96059.97;5037441;28;20032;-76
2022/10/22 02:09:35;;;;;;;1.93;1.00;;;;;;;11.57;100.00;96051.09;5033433;28;20035;-76
2022/10/22 02:12:05;;;;;;;3.20;0.97;;;;;;;11.53;100.00;96048.94;5039240;28;20732;-76
2022/10/22 02:14:33;;;;;;;2.00;0.90;;;;;;;11.48;100.00;96051.28;5037267;28;20095;-76
2022/10/22 02:17:00;;;;;;;3.53;1.00;;;;;;;11.52;100.00;96036.78;5040032;28;20047;-76
2022/10/22 02:19:52;;;;;;;4.73;0.90;;;;;;;11.47;100.00;96024.13;5041159;28;20040;-76
2022/10/22 02:22:19;;;;;;;1.43;0.70;;;;;;;11.43;100.00;96009.63;5025260;28;20128;-76
2022/10/22 02:24:45;;;;;;;1.40;0.50;;;;;;;11.42;100.00;96013.25;5042864;28;20031;-76
2022/10/22 02:27:16;;;;;;;1.10;0.50;;;;;;;11.44;100.00;96015.75;5039680;28;20025;-76
2022/10/22 02:29:54;;;;;;;1.23;0.50;;;;;;;11.44;100.00;96013.94;5046155;28;20043;-76
2022/10/22 02:32:24;;;;;;;3.30;0.70;;;;;;;11.44;100.00;96010.47;5067084;28;20041;-77
2022/10/22 02:34:53;;;;;;;1.00;0.50;;;;;;;11.38;100.00;96024.31;5054079;28;20483;-76
2022/10/22 02:37:20;;;;;;;1.07;0.50;;;;;;;11.40;100.00;96022.31;5038640;28;20035;-76
2022/10/22 02:39:46;;;;;;;2.53;0.80;;;;;;;11.35;100.00;96025.47;5037830;28;20037;-76
2022/10/22 02:42:13;;;;;;;0.77;0.60;;;;;;;11.26;100.00;96048.34;5046206;28;20048;-76
2022/10/22 02:44:38;;;;;;;2.23;0.60;;;;;;;11.26;100.00;96052.78;5044499;28;20038;-76
2022/10/22 02:47:04;;;;;;;0.87;0.60;;;;;;;11.25;100.00;96066.97;5045445;28;20082;-76
2022/10/22 02:49:30;;;;;;;4.17;0.87;;;;;;;11.22;100.00;96056.75;5034720;28;20045;-76
2022/10/22 02:51:56;;;;;;;0.70;0.50;;;;;;;11.24;100.00;96049.53;5033646;28;20029;-76
2022/10/22 02:54:22;;;;;;;1.90;0.73;;;;;;;11.21;100.00;96049.88;5042440;28;20024;-76
2022/10/22 02:56:47;;;;;;;1.97;0.60;;;;;;;11.17;100.00;96041.47;5049830;28;20051;-76
2022/10/22 02:59:13;;;;;;;2.27;0.77;;;;;;;11.15;100.00;96046.09;5048488;28;20025;-76
2022/10/22 03:01:39;;;;;;;4.93;0.90;;;;;;;11.15;100.00;96055.78;5057883;28;20123;-76
2022/10/22 03:04:05;;;;;;;1.20;0.50;;;;;;;11.09;100.00;96068.63;5047363;28;20517;-76
2022/10/22 03:06:30;;;;;;;1.70;0.70;;;;;;;11.06;100.00;96076.84;5045130;28;20377;-76
2022/10/22 03:08:56;;;;;;;1.90;0.83;;;;;;;11.03;100.00;96078.97;5043456;28;20032;-77
2022/10/22 03:11:22;;;;;;;3.03;0.83;;;;;;;10.99;100.00;96083.75;5045862;28;20029;-76
2022/10/22 03:13:47;;;;;;;3.97;0.70;;;;;;;10.99;100.00;96078.50;5047285;28;20033;-77
2022/10/22 03:16:13;;;;;;;1.33;0.73;;;;;;;10.99;100.00;96088.19;5038996;28;20029;-76
2022/10/22 03:18:38;;;;;;;1.80;0.70;;;;;;;10.98;100.00;96094.47;5043631;28;20033;-76
2022/10/22 03:21:33;;;;;;;1.50;0.60;;;;;;;10.96;100.00;96107.75;5045607;28;20461;-76
2022/10/22 03:24:01;;;;;;;3.17;1.47;;;;;;;10.92;100.00;96109.09;5020119;28;20041;-75
2022/10/22 03:26:27;;;;;;;4.33;0.97;;;;;;;10.93;100.00;96116.00;5012324;28;20502;-76
2022/10/22 03:28:53;;;;;;;2.03;0.60;;;;;;;10.98;100.00;96116.31;5011105;28;20040;-75
2022/10/22 03:31:19;;;;;;;3.10;0.80;;;;;;;10.96;100.00;96114.84;5010112;28;20510;-76
2022/10/22 03:33:45;;;;;;;2.03;0.80;;;;;;;10.95;100.00;96107.94;4999834;28;20075;-76
2022/10/22 03:36:10;;;;;;;1.70;0.60;;;;;;;10.91;100.00;96114.53;5012150;28;20094;-76
2022/10/22 03:38:38;;;;;;;3.37;0.80;;;;;;;10.89;100.00;96109.41;5011780;28;20041;-75
2022/10/22 03:41:03;;;;;;;0.90;0.60;;;;;;;10.90;100.00;96110.22;4996985;28;20514;-75
2022/10/22 03:43:29;;;;;;;1.97;0.60;;;;;;;10.90;100.00;96094.44;4996611;28;20091;-76
2022/10/22 03:45:55;;;;;;;4.83;1.00;;;;;;;10.87;100.00;96098.25;5012123;28;20049;-76
2022/10/22 03:48:20;;;;;;;3.97;1.33;;;;;;;10.86;100.00;96099.22;5011520;28;20086;-76
2022/10/22 03:50:46;;;;;;;3.37;0.80;;;;;;;10.89;100.00;96108.59;4998089;28;20122;-76
2022/10/22 03:53:12;;;;;;;1.77;0.87;;;;;;;10.87;100.00;96100.88;5026364;28;20029;-76
2022/10/22 03:55:40;;;;;;;4.90;1.07;;;;;;;10.88;100.00;96099.88;5044968;28;20037;-76
2022/10/22 03:58:06;;;;;;;2.03;0.70;;;;;;;10.84;100.00;96101.19;5045264;28;20039;-76
2022/10/22 04:00:33;;;;;;;1.80;0.70;;;;;;;10.85;100.00;96098.41;5045100;28;20037;-76
2022/10/22 04:02:58;;;;;;;3.00;0.83;;;;;;;10.86;100.00;96093.94;5045278;28;20037;-76
2022/10/22 04:05:24;;;;;;;4.03;0.93;;;;;;;10.84;100.00;96101.19;5046919;28;20028;-76
2022/10/22 04:07:50;;;;;;;2.60;0.80;;;;;;;10.89;100.00;96098.88;5042785;28;20648;-76
2022/10/22 04:10:16;;;;;;;2.57;1.17;;;;;;;10.88;100.00;96102.50;5040879;28;20032;-76
2022/10/22 04:12:41;;;;;;;3.33;1.17;;;;;;;10.86;100.00;96104.47;5046636;28;20033;-76
2022/10/22 04:15:08;;;;;;;3.67;1.10;;;;;;;10.86;100.00;96107.09;5045245;28;20025;-76
2022/10/22 04:17:35;;;;;;;6.37;1.30;;;;;;;10.86;100.00;96117.63;5042879;28;20119;-76
2022/10/22 04:20:03;;;;;;;2.30;0.90;;;;;;;10.86;100.00;96125.53;5047292;28;20651;-76
2022/10/22 04:22:29;;;;;;;2.57;0.83;;;;;;;10.83;100.00;96120.59;5050807;28;20139;-76
2022/10/22 04:24:54;;;;;;;2.53;1.10;;;;;;;10.78;100.00;96118.44;5053727;28;20613;-76
2022/10/22 04:27:20;;;;;;;3.80;1.27;;;;;;;10.70;100.00;96125.53;5050315;28;20048;-76
2022/10/22 04:29:46;;;;;;;3.13;1.27;;;;;;;10.67;100.00;96110.06;5048828;28;20044;-76
2022/10/22 04:32:11;;;;;;;2.30;1.63;;;;;;;10.62;100.00;96113.16;5050025;28;20021;-76
2022/10/22 04:34:37;;;;;;;5.77;3.90;;;;;;;10.60;100.00;96104.63;5050575;28;20145;-76
2022/10/22 04:37:03;;;;;;;2.53;1.53;;;;;;;10.59;100.00;96098.53;5048782;28;20777;-76
2022/10/22 04:39:29;;;;;;;2.23;1.20;;;;;;;10.55;100.00;96097.22;5048735;28;20131;-77
2022/10/22 04:41:55;;;;;;;2.73;1.33;;;;;;;10.58;100.00;96086.38;5050707;28;20128;-76
2022/10/22 04:44:21;;;;;;;5.13;1.27;;;;;;;10.53;100.00;96083.44;5049084;28;20032;-76
2022/10/22 04:46:46;;;;;;;3.27;1.00;;;;;;;10.52;100.00;96089.66;5049747;28;20494;-76
2022/10/22 04:49:12;;;;;;;2.03;1.13;;;;;;;10.57;100.00;96094.44;5048795;28;20068;-76
2022/10/22 04:51:38;;;;;;;2.10;0.77;;;;;;;10.55;100.00;96096.41;5045281;28;20032;-76
2022/10/22 04:54:04;;;;;;;1.47;0.70;;;;;;;10.57;100.00;96110.22;5049080;28;20553;-76
2022/10/22 04:56:31;;;;;;;2.67;0.77;;;;;;;10.56;100.00;96105.94;5050826;28;20060;-76
2022/10/22 04:58:58;;;;;;;5.07;1.40;;;;;;;10.55;100.00;96107.75;5049358;28;20033;-76
2022/10/22 05:01:26;;;;;;;5.07;1.00;;;;;;;10.53;100.00;96109.72;5061679;28;20497;-76
2022/10/22 05:03:54;;;;;;;5.93;1.93;;;;;;;10.54;100.00;96116.63;5059486;28;20029;-76
2022/10/22 05:06:21;;;;;;;4.17;1.70;;;;;;;10.57;100.00;96118.09;5052354;28;20029;-76
2022/10/22 05:08:51;;;;;;;7.47;2.77;;;;;;;10.49;100.00;96108.38;5041953;28;20041;-76
2022/10/22 05:11:19;;;;;;;4.23;0.80;;;;;;;10.41;100.00;96116.25;5053659;28;20516;-76
2022/10/22 05:13:45;;;;;;;3.93;1.13;;;;;;;10.43;100.00;96118.72;5048786;28;20095;-76
2022/10/22 05:16:12;;;;;;;4.97;1.90;;;;;;;10.36;100.00;96102.75;5053383;28;20016;-76
2022/10/22 05:18:40;;;;;;;2.80;0.90;;;;;;;10.43;100.00;96113.47;5048317;28;20116;-76
2022/10/22 05:21:11;;;;;;;2.77;0.50;;;;;;;10.49;100.00;96116.25;5049194;28;20628;-76
2022/10/22 05:23:37;;;;;;;3.80;0.70;;;;;;;10.47;100.00;96126.13;5047628;28;20045;-76
2022/10/22 05:26:04;;;;;;;4.03;0.70;;;;;;;10.50;100.00;96125.81;5048407;28;20111;-76
2022/10/22 05:28:31;;;;;;;2.63;0.70;;;;;;;10.39;100.00;96149.75;5046616;28;20045;-76
2022/10/22 05:30:58;;;;;;;1.80;0.70;;;;;;;10.45;100.00;96164.09;5048762;28;20147;-76
2022/10/22 05:33:24;;;;;;;5.00;1.03;;;;;;;10.41;100.00;96163.59;5048522;28;20118;-76
2022/10/22 05:35:50;;;;;;;3.20;0.67;;;;;;;10.41;100.00;96160.94;5048083;28;20391;-76
2022/10/22 05:38:17;;;;;;;3.17;1.70;;;;;;;10.40;100.00;96161.94;5043819;28;20043;-76
2022/10/22 05:40:43;;;;;;;6.90;4.03;;;;;;;10.42;100.00;96172.28;5056551;28;20044;-76
2022/10/22 05:43:09;;;;;;;3.23;0.97;;;;;;;10.40;100.00;96169.84;5055826;28;20029;-76
2022/10/22 05:45:41;;;;;;;2.47;1.13;;;;;;;10.40;100.00;96179.53;5049007;28;20040;-76
2022/10/22 05:48:08;;;;;;;1.30;0.80;;;;;;;10.39;100.00;96183.94;5028413;28;20642;-76
2022/10/22 05:50:36;;;;;;;2.17;1.00;;;;;;;10.37;100.00;96183.28;5047492;28;20087;-76
2022/10/22 05:53:02;;;;;;;2.70;0.83;;;;;;;10.35;100.00;96185.25;5053022;28;20024;-76
2022/10/22 05:55:28;;;;;;;2.57;1.00;;;;;;;10.34;100.00;96188.88;5048772;28;20063;-76
2022/10/22 05:57:53;;;;;;;2.23;0.63;;;;;;;10.39;100.00;96186.56;5045580;28;20056;-76
2022/10/22 06:00:19;;;;;;;1.77;0.77;;;;;;;10.37;100.00;96184.09;5047454;28;20037;-76
2022/10/22 06:02:49;;;;;;;0.70;0.60;;;;;;;10.30;100.00;96193.63;5046976;28;20048;-76
2022/10/22 06:05:15;;;;;;;1.37;0.80;;;;;;;10.34;100.00;96204.63;5052644;28;20498;-76
2022/10/22 06:07:41;;;;;;;2.47;1.13;;;;;;;10.31;100.00;96200.50;5049364;28;20032;-77
2022/10/22 06:10:14;;;;;;;6.37;1.43;;;;;;;10.34;100.00;96202.81;5050617;28;20067;-77
2022/10/22 06:12:39;;;;;;;3.42;1.23;;;;;;;10.42;100.00;96202.03;5047136;28;20928;-77
2022/10/22 06:15:06;;;;;;;1.60;0.83;;;;;;;10.48;100.00;96208.47;5049127;28;20025;-77
2022/10/22 06:17:32;;;;;;;0.93;0.70;;;;;;;10.46;100.00;96211.25;5046364;28;20032;-77
2022/10/22 06:19:57;;;;;;;4.20;1.10;;;;;;;10.49;100.00;96226.69;5044682;28;20513;-77
2022/10/22 06:22:23;;;;;;;3.07;1.00;;;;;;;10.53;100.00;96227.19;5047599;28;20445;-77
2022/10/22 06:24:49;;;;;;;5.83;1.40;;;;;;;10.51;100.00;96223.91;5054702;28;20032;-77
2022/10/22 06:27:14;;;;;;;1.83;0.87;;;;;;;10.55;100.00;96230.50;5046566;28;20136;-77
2022/10/22 06:29:40;;;;;;;2.37;0.90;;;;;;;10.56;100.00;96240.88;5040189;28;20394;-77
2022/10/22 06:32:06;;;;;;;4.47;0.90;;;;;;;10.57;100.00;96246.97;5042774;28;20136;-77
2022/10/22 06:34:32;;;;;;;2.63;0.80;;;;;;;10.58;100.00;96251.22;5048529;28;20028;-77
2022/10/22 06:36:57;;;;;;;4.13;0.80;;;;;;;10.65;100.00;96248.78;5047712;28;20072;-77
2022/10/22 06:39:23;;;;;;;4.70;0.87;;;;;;;10.67;100.00;96260.81;5047048;28;20486;-77
2022/10/22 06:41:49;;;;;;;4.50;0.70;;;;;;;10.68;100.00;96259.00;5047467;28;20079;-77
2022/10/22 06:44:17;;;;;;;3.07;0.87;;;;;;;10.62;100.00;96263.88;5029423;28;20037;-77
2022/10/22 06:46:43;;;;;;;1.73;1.00;;;;;;;10.67;100.00;96267.88;5046663;28;20040;-77
2022/10/22 06:49:13;;;;;;;2.87;0.73;;;;;;;10.69;100.00;96279.03;5040224;28;20454;-77
2022/10/22 06:51:39;;;;;;;1.60;0.70;;;;;;;10.67;100.00;96267.88;5035153;28;20035;-77
2022/10/22 06:54:04;;;;;;;6.47;1.03;;;;;;;10.75;100.00;96289.75;5046083;28;20028;-78
2022/10/22 06:56:30;;;;;;;3.03;1.30;;;;;;;10.80;100.00;96294.56;5046474;28;20031;-79
2022/10/22 06:58:57;;;;;;;7.07;1.10;;;;;;;10.83;100.00;96295.06;5045902;28;20040;-78
2022/10/22 07:01:27;;;;;;;2.93;0.80;;;;;;;10.88;100.00;96297.19;5052735;28;20039;-77
2022/10/22 07:03:53;;;;;;;3.67;0.90;;;;;;;10.90;100.00;96303.13;5049291;28;20102;-77
2022/10/22 07:06:20;;;;;;;5.47;0.63;;;;;;;10.95;100.00;96305.28;5045963;28;20029;-78
2022/10/22 07:08:46;;;;;;;3.87;1.40;;;;;;;10.92;100.00;96298.53;5041364;28;20060;-77
2022/10/22 07:11:18;;;;;;;4.20;1.30;;;;;;;11.03;100.00;96297.41;5049622;28;20432;-78
2022/10/22 07:13:45;;;;;;;7.57;2.10;;;;;;;11.07;100.00;96296.94;5028629;28;20044;-78
2022/10/22 07:16:11;;;;;;;54.43;7.70;;;;;;;10.78;100.00;96301.75;5055873;28;20108;-77
2022/10/22 07:18:38;;;;;;;21.73;4.00;;;;;;;10.93;100.00;96309.88;5046593;28;20036;-77
2022/10/22 07:21:04;;;;;;;8.13;3.83;;;;;;;10.92;100.00;96327.47;5049366;28;20043;-78
2022/10/22 07:23:30;;;;;;;10.83;2.40;;;;;;;10.98;100.00;96324.19;5046302;28;20037;-77
2022/10/22 07:25:56;;;;;;;10.43;6.17;;;;;;;11.01;100.00;96328.31;5047275;28;20032;-77
2022/10/22 07:28:22;;;;;;;19.53;7.10;;;;;;;11.11;100.00;96333.47;5046416;28;20078;-78
2022/10/22 07:30:48;;;;;;;10.23;5.83;;;;;;;11.15;100.00;96329.53;5039158;28;20029;-78
2022/10/22 07:33:14;;;;;;;22.93;14.97;;;;;;;11.22;100.00;96333.16;5044698;28;20190;-78
2022/10/22 07:35:40;;;;;;;32.23;19.97;;;;;;;11.32;100.00;96324.13;5047141;28;20079;-78
2022/10/22 07:38:07;;;;;;;8.97;5.03;;;;;;;11.36;100.00;96322.00;5045949;28;20033;-78
2022/10/22 07:40:35;;;;;;;5.97;2.90;;;;;;;11.33;100.00;96331.06;5045814;28;20410;-78
2022/10/22 07:43:01;;;;;;;25.13;10.83;;;;;;;11.42;100.00;96326.63;5000788;28;20025;-77
2022/10/22 07:45:27;;;;;;;7.07;2.83;;;;;;;11.31;100.00;96332.19;4976625;28;22643;-79
2022/10/22 07:47:53;;;;;;;5.30;3.10;;;;;;;11.34;100.00;96334.50;4972332;28;20037;-78
2022/10/22 07:50:18;;;;;;;8.23;4.27;;;;;;;11.43;100.00;96335.31;4973810;28;20063;-78
2022/10/22 07:52:44;;;;;;;5.87;3.50;;;;;;;11.44;100.00;96340.44;4957222;28;20044;-77
2022/10/22 07:55:10;;;;;;;6.43;2.93;;;;;;;11.48;100.00;96344.41;4933778;28;20060;-78
2022/10/22 07:57:36;;;;;;;3.93;2.07;;;;;;;11.60;100.00;96344.06;4938544;28;20102;-78
2022/10/22 08:00:04;;;;;;;8.50;2.70;;;;;;;11.66;100.00;96344.25;4947784;28;20091;-76
2022/10/22 08:02:37;;;;;;;6.37;2.57;;;;;;;11.78;100.00;96348.22;4934537;28;20033;-75
2022/10/22 08:05:03;;;;;;;28.20;9.50;;;;;;;12.00;100.00;96348.56;4935335;28;20056;-76
2022/10/22 08:07:29;;;;;;;29.23;14.97;;;;;;;12.25;100.00;96347.59;4936499;28;20029;-76
2022/10/22 08:09:54;;;;;;;11.93;4.93;;;;;;;12.41;100.00;96344.09;4950192;28;20052;-76
2022/10/22 08:12:20;;;;;;;14.10;4.13;;;;;;;12.68;100.00;96342.88;5012176;28;20051;-76
2022/10/22 08:14:46;;;;;;;6.77;1.90;;;;;;;12.72;100.00;96338.09;4982726;28;20037;-76
2022/10/22 08:17:11;;;;;;;5.93;1.83;;;;;;;13.00;100.00;96324.44;4979413;28;20079;-76
2022/10/22 08:19:37;;;;;;;3.77;2.00;;;;;;;13.09;100.00;96326.06;4981076;28;20033;-76
2022/10/22 08:22:02;;;;;;;5.53;2.03;;;;;;;13.16;100.00;96324.38;5005971;28;20138;-76
2022/10/22 08:24:29;;;;;;;5.10;2.42;;;;;;;13.27;100.00;96326.66;5027170;28;20122;-78
2022/10/22 08:26:55;;;;;;;7.13;3.07;;;;;;;13.61;100.00;96320.16;5023460;28;20032;-79
2022/10/22 08:29:22;;;;;;;3.45;1.17;;;;;;;13.68;100.00;96318.44;5046647;28;20025;-79
2022/10/22 08:31:49;;;;;;;3.97;1.88;;;;;;;14.41;100.00;96321.47;5049784;28;20037;-78
2022/10/22 08:34:16;;;;;;;3.70;1.80;;;;;;;14.91;100.00;96315.47;5053744;28;20055;-75
2022/10/22 08:36:42;;;;;;;4.85;1.70;;;;;;;16.01;100.00;96301.19;5075731;28;20025;-78
2022/10/22 08:39:08;;;;;;;7.03;1.15;;;;;;;16.40;100.00;96283.94;5044976;28;20032;-79
2022/10/22 08:42:12;;;;;;;4.93;0.98;;;;;;;16.13;100.00;96293.50;5020153;28;20056;-79
2022/10/22 08:45:12;;;;;;;2.53;0.70;;;;;;;16.57;100.00;96290.56;5051320;28;20093;-81
2022/10/22 08:47:50;;;;;;;1.85;1.10;;;;;;;16.71;100.00;96289.63;5049988;28;20029;-81
2022/10/22 08:50:26;;;;;;;1.75;0.90;;;;;;;17.15;100.00;96275.13;5049939;28;20033;-81
2022/10/22 08:52:57;;;;;;;6.97;0.75;;;;;;;17.08;100.00;96278.78;5035797;28;20036;-80
2022/10/22 08:55:24;;;;;;;3.28;0.75;;;;;;;16.55;100.00;96291.78;5040566;28;20051;-80
2022/10/22 08:58:27;;;;;;;3.08;1.00;;;;;;;16.20;100.00;96297.88;5057122;28;20037;-80
2022/10/22 09:00:56;;;;;;;3.45;0.90;;;;;;;15.99;100.00;96303.19;5048829;28;21025;-80
2022/10/22 09:03:21;;;;;;;5.30;0.90;;;;;;;16.07;100.00;96304.91;5045908;28;21408;-80
2022/10/22 09:06:22;;;;;;;6.53;1.00;;;;;;;15.90;100.00;96314.97;5040783;28;20033;-80
2022/10/22 09:08:49;;;;;;;3.75;1.42;;;;;;;15.67;100.00;96323.13;5045513;28;20041;-80
2022/10/22 09:11:33;;;;;;;3.83;1.30;;;;;;;15.70;100.00;96320.91;5031605;28;20301;-80
2022/10/22 09:14:00;;;;;;;2.50;1.30;;;;;;;15.89;100.00;96323.91;5052283;28;20064;-80
2022/10/22 09:16:41;;;;;;;2.20;1.15;;;;;;;16.71;100.00;96315.34;5031241;28;20146;-81
2022/10/22 09:19:16;;;;;;;1.88;1.20;;;;;;;17.62;100.00;96302.66;5011771;28;20102;-81
2022/10/22 09:22:10;;;;;;;3.22;1.15;;;;;;;18.46;100.00;96303.13;5031722;28;20044;-81
2022/10/22 09:24:44;;;;;;;2.72;1.05;;;;;;;17.77;100.00;96301.69;5051494;28;20435;-81
2022/10/22 09:27:17;;;;;;;2.05;0.88;;;;;;;18.01;100.00;96301.13;5067878;28;20067;-81
2022/10/22 09:29:44;;;;;;;5.18;1.90;;;;;;;17.84;100.00;96305.16;5058616;28;20029;-80
2022/10/22 09:32:10;;;;;;;12.68;8.10;;;;;;;18.85;100.00;96302.28;5055380;28;20390;-80
2022/10/22 09:34:36;;;;;;;10.85;5.45;;;;;;;19.61;100.00;96290.03;5050359;28;20034;-80
2022/10/22 09:37:08;;;;;;;3.75;0.98;;;;;;;20.25;100.00;96292.47;5048600;28;20487;-79
2022/10/22 09:39:43;;;;;;;6.15;3.15;;;;;;;19.95;100.00;96286.97;5063620;28;20044;-81
2022/10/22 09:42:12;;;;;;;2.25;1.20;;;;;;;20.59;100.00;96284.16;5054727;28;20478;-80
2022/10/22 09:44:38;;;;;;;4.82;0.80;;;;;;;20.13;100.00;96293.41;5035503;28;20038;-80
2022/10/22 09:47:44;;;;;;;2.72;0.52;;;;;;;20.30;100.00;96286.47;5063715;28;20796;-80
2022/10/22 09:50:26;;;;;;;1.70;0.70;;;;;;;19.81;100.00;96301.41;5041984;28;20051;-80
2022/10/22 09:53:04;;;;;;;2.53;0.80;;;;;;;20.65;100.00;96304.66;5069929;28;20025;-81
2022/10/22 09:55:30;;;;;;;3.10;1.30;;;;;;;19.95;100.00;96304.81;5063479;28;20068;-81
2022/10/22 09:57:59;;;;;;;2.95;0.93;;;;;;;20.87;100.00;96305.06;5063795;28;20078;-80
2022/10/22 10:00:26;;;;;;;4.03;0.70;;;;;;;20.84;100.00;96305.50;5071459;28;20063;-81
2022/10/22 10:02:57;;;;;;;1.92;0.70;;;;;;;20.05;100.00;96305.16;5056159;28;20029;-81
2022/10/22 10:05:34;;;;;;;7.15;0.80;;;;;;;20.31;100.00;96304.13;5053108;28;20094;-80
2022/10/22 10:08:14;;;;;;;2.45;0.70;;;;;;;19.58;100.00;96322.47;5050808;28;20037;-80
2022/10/22 10:11:25;;;;;;;1.02;0.75;;;;;;;19.57;100.00;96321.66;5057805;28;20039;-81
2022/10/22 10:14:12;;;;;;;4.03;0.80;;;;;;;20.53;100.00;96309.13;5066187;28;20082;-80
2022/10/22 10:16:54;;;;;;;2.47;0.90;;;;;;;20.86;100.00;96309.59;5063330;28;20079;-81
2022/10/22 10:19:50;;;;;;;6.00;1.08;;;;;;;21.01;100.00;96311.88;5046877;28;20028;-80
2022/10/22 10:22:41;;;;;;;2.15;0.90;;;;;;;21.54;100.00;96310.47;5069930;28;20056;-81
2022/10/22 10:25:34;;;;;;;6.05;1.25;;;;;;;21.61;100.00;96313.84;5058957;28;20058;-81
2022/10/22 10:28:08;;;;;;;2.10;0.98;;;;;;;21.21;100.00;96308.97;5068859;28;20029;-79
2022/10/22 10:30:44;;;;;;;1.92;0.73;;;;;;;21.18;100.00;96312.09;5059655;28;20036;-79
2022/10/22 10:33:49;;;;;;;1.25;0.75;;;;;;;21.32;100.00;96307.41;5035914;28;20025;-79
2022/10/22 10:36:56;;;;;;;1.77;1.10;;;;;;;21.37;100.00;96316.44;5047984;28;20064;-80
2022/10/22 10:39:37;;;;;;;2.08;0.77;;;;;;;21.01;100.00;96327.13;5039177;28;20054;-79
2022/10/22 10:42:21;;;;;;;1.67;0.88;;;;;;;21.22;100.00;96317.81;5057605;28;20583;-79
2022/10/22 10:44:53;;;;;;;1.80;0.70;;;;;;;21.39;100.00;96317.03;5063512;28;20024;-80
2022/10/22 10:47:29;;;;;;;3.20;1.45;;;;;;;21.18;100.00;96334.31;5048114;28;20060;-81
2022/10/22 10:50:21;;;;;;;1.48;0.90;;;;;;;21.11;100.00;96327.41;5055676;28;20720;-80
2022/10/22 10:53:02;;;;;;;4.32;0.90;;;;;;;20.97;100.00;96325.94;5045500;28;20047;-81
2022/10/22 10:55:37;;;;;;;2.75;0.82;;;;;;;20.91;100.00;96327.63;5053801;28;20124;-81
2022/10/22 10:58:22;;;;;;;2.15;0.88;;;;;;;21.55;100.00;96320.13;5062610;28;20032;-80
2022/10/22 11:01:23;;;;;;;1.40;0.73;;;;;;;21.43;100.00;96320.06;5063822;28;20021;-80
2022/10/22 11:04:01;;;;;;;2.30;0.80;;;;;;;21.15;100.00;96325.91;5041625;28;20049;-80
2022/10/22 11:06:36;;;;;;;3.40;1.10;;;;;;;21.45;100.00;96323.31;5054786;28;20848;-80
2022/10/22 11:09:13;;;;;;;3.97;1.50;;;;;;;21.51;100.00;96317.06;5040642;28;20040;-80
2022/10/22 11:11:46;;;;;;;2.95;0.70;;;;;;;21.25;100.00;96318.19;5064762;28;20043;-80
2022/10/22 11:14:26;;;;;;;3.38;0.90;;;;;;;20.97;100.00;96317.91;5055848;28;20033;-80
2022/10/22 11:17:02;;;;;;;1.15;0.70;;;;;;;21.69;100.00;96318.06;5078494;28;20119;-81
2022/10/22 11:19:38;;;;;;;3.20;0.85;;;;;;;21.12;100.00;96324.50;5048064;28;20045;-80
2022/10/22 11:22:34;;;;;;;1.73;0.60;;;;;;;21.91;100.00;96315.72;5048766;28;20047;-81
2022/10/22 11:25:12;;;;;;;1.45;0.85;;;;;;;21.18;100.00;96318.25;5033601;28;20032;-80
2022/10/22 11:28:02;;;;;;;3.45;0.80;;;;;;;22.17;100.00;96325.25;5053779;28;20075;-80
2022/10/22 11:30:34;;;;;;;2.05;0.95;;;;;;;21.37;100.00;96324.47;5043234;28;20044;-80
2022/10/22 11:33:04;;;;;;;3.33;1.23;;;;;;;21.47;100.00;96323.13;5053625;28;20055;-80
2022/10/22 11:35:34;;;;;;;4.45;2.70;;;;;;;21.24;100.00;96331.78;5045547;28;20134;-80
2022/10/22 11:38:04;;;;;;;4.10;1.73;;;;;;;21.26;100.00;96317.16;5053019;28;20028;-80
2022/10/22 11:40:42;;;;;;;2.55;1.00;;;;;;;21.87;100.00;96312.69;5054088;28;20482;-80